createdAt,value
2023-03-28T00:00:04.899Z,2.90
2023-03-28T00:00:27.590Z,2.90
2023-03-28T00:00:50.473Z,2.90
2023-03-28T00:01:13.609Z,2.80
2023-03-28T00:01:36.413Z,2.90
2023-03-28T00:01:59.470Z,2.90
2023-03-28T00:02:24.997Z,2.80
2023-03-28T00:02:47.888Z,2.80
2023-03-28T00:03:14.747Z,2.80
2023-03-28T00:03:40.148Z,2.80
2023-03-28T00:04:03.544Z,2.80
2023-03-28T00:04:26.488Z,2.70
2023-03-28T00:04:50.102Z,2.80
2023-03-28T00:05:14.094Z,2.70
2023-03-28T00:05:40.393Z,2.80
2023-03-28T00:06:05.961Z,2.80
2023-03-28T00:06:29.111Z,2.80
2023-03-28T00:06:52.159Z,2.80
2023-03-28T00:07:15.011Z,2.80
2023-03-28T00:07:38.506Z,2.80
2023-03-28T00:08:01.161Z,2.80
2023-03-28T00:08:23.922Z,2.80
2023-03-28T00:08:47.670Z,2.80
2023-03-28T00:09:10.923Z,2.80
2023-03-28T00:09:34.033Z,2.80
2023-03-28T00:09:57.627Z,2.70
2023-03-28T00:10:20.972Z,2.70
2023-03-28T00:10:46.585Z,2.80
2023-03-28T00:11:10.160Z,2.80
2023-03-28T00:11:32.938Z,2.80
2023-03-28T00:11:55.868Z,2.80
2023-03-28T00:12:18.742Z,2.80
2023-03-28T00:12:42.847Z,2.80
2023-03-28T00:13:05.606Z,2.80
2023-03-28T00:13:30.146Z,2.80
2023-03-28T00:13:58.314Z,2.80
2023-03-28T00:14:21.647Z,2.80
2023-03-28T00:14:46.299Z,2.80
2023-03-28T00:15:09.326Z,2.80
2023-03-28T00:15:32.087Z,2.80
2023-03-28T00:15:54.802Z,2.80
2023-03-28T00:16:17.736Z,2.80
2023-03-28T00:16:41.654Z,2.80
2023-03-28T00:17:07.745Z,2.80
2023-03-28T00:17:30.862Z,2.80
2023-03-28T00:17:53.710Z,2.80
2023-03-28T00:18:16.457Z,2.80
2023-03-28T00:18:39.448Z,2.80
2023-03-28T00:19:03.448Z,2.80
2023-03-28T00:19:26.534Z,2.80
2023-03-28T00:19:50.108Z,2.90
2023-03-28T00:20:14.588Z,2.80
2023-03-28T00:20:38.796Z,2.80
2023-03-28T00:21:01.967Z,2.80
2023-03-28T00:21:25.453Z,2.80
2023-03-28T00:21:49.539Z,2.80
2023-03-28T00:22:12.297Z,2.90
2023-03-28T00:22:38.295Z,2.90
2023-03-28T00:23:00.992Z,2.80
2023-03-28T00:23:24.959Z,2.80
2023-03-28T00:23:51.859Z,2.90
2023-03-28T00:24:16.192Z,2.80
2023-03-28T00:24:39.042Z,2.80
2023-03-28T00:25:03.077Z,2.80
2023-03-28T00:25:25.823Z,2.80
2023-03-28T00:25:48.981Z,2.90
2023-03-28T00:26:13.410Z,2.90
2023-03-28T00:26:37.231Z,2.90
2023-03-28T00:27:01.948Z,2.90
2023-03-28T00:27:24.826Z,2.90
2023-03-28T00:27:48.999Z,2.90
2023-03-28T00:28:11.753Z,2.90
2023-03-28T00:28:35.396Z,2.90
2023-03-28T00:28:58.187Z,3.00
2023-03-28T00:29:21.727Z,3.00
2023-03-28T00:29:44.548Z,3.00
2023-03-28T00:30:09.782Z,3.00
2023-03-28T00:30:32.482Z,3.00
2023-03-28T00:31:02.125Z,3.00
2023-03-28T00:31:25.075Z,3.00
2023-03-28T00:31:48.116Z,3.10
2023-03-28T00:32:11.186Z,3.00
2023-03-28T00:32:33.880Z,3.00
2023-03-28T00:32:57.661Z,3.00
2023-03-28T00:33:20.509Z,3.00
2023-03-28T00:33:43.929Z,3.00
2023-03-28T00:34:07.278Z,3.10
2023-03-28T00:34:29.917Z,3.10
2023-03-28T00:34:52.577Z,3.10
2023-03-28T00:35:16.087Z,3.10
2023-03-28T00:35:38.787Z,3.10
2023-03-28T00:36:01.820Z,3.10
2023-03-28T00:36:26.844Z,3.10
2023-03-28T00:36:51.068Z,3.10
2023-03-28T00:37:17.421Z,3.10
2023-03-28T00:37:42.171Z,3.10
2023-03-28T00:38:05.009Z,3.10
2023-03-28T00:38:27.884Z,3.10
2023-03-28T00:38:52.283Z,3.10
2023-03-28T00:39:15.717Z,3.20
2023-03-28T00:39:40.346Z,3.20
2023-03-28T00:40:07.555Z,3.20
2023-03-28T00:40:35.008Z,3.20
2023-03-28T00:40:58.128Z,3.20
2023-03-28T00:41:22.127Z,3.30
2023-03-28T00:41:45.226Z,3.20
2023-03-28T00:42:13.778Z,3.20
2023-03-28T00:42:41.464Z,3.30
2023-03-28T00:43:06.141Z,3.20
2023-03-28T00:43:39.527Z,3.20
2023-03-28T00:44:02.427Z,3.20
2023-03-28T00:44:51.064Z,3.20
2023-03-28T00:45:13.928Z,3.20
2023-03-28T00:45:36.672Z,3.30
2023-03-28T00:46:08.616Z,3.30
2023-03-28T00:46:34.643Z,3.30
2023-03-28T00:46:57.831Z,3.30
2023-03-28T00:47:31.518Z,3.30
2023-03-28T00:47:55.740Z,3.30
2023-03-28T00:48:19.267Z,3.30
2023-03-28T00:48:47.064Z,3.30
2023-03-28T00:49:12.404Z,3.30
2023-03-28T00:49:35.563Z,3.30
2023-03-28T00:50:00.907Z,3.30
2023-03-28T00:50:27.712Z,3.30
2023-03-28T00:50:51.490Z,3.30
2023-03-28T00:51:14.836Z,3.20
2023-03-28T00:51:40.331Z,3.20
2023-03-28T00:52:03.973Z,3.20
2023-03-28T00:52:29.890Z,3.20
2023-03-28T00:52:54.580Z,3.30
2023-03-28T00:53:18.922Z,3.20
2023-03-28T00:53:42.499Z,3.20
2023-03-28T00:54:05.949Z,3.20
2023-03-28T00:54:29.950Z,3.20
2023-03-28T00:54:52.636Z,3.20
2023-03-28T00:55:17.700Z,3.20
2023-03-28T00:55:43.062Z,3.20
2023-03-28T00:56:07.235Z,3.10
2023-03-28T00:56:31.548Z,3.30
2023-03-28T00:56:55.863Z,3.10
2023-03-28T00:57:18.616Z,3.20
2023-03-28T00:57:42.123Z,3.10
2023-03-28T00:58:08.406Z,3.10
2023-03-28T00:58:32.858Z,3.10
2023-03-28T00:58:55.748Z,3.10
2023-03-28T00:59:20.127Z,3.10
2023-03-28T00:59:42.858Z,3.10
2023-03-28T01:00:06.798Z,3.10
2023-03-28T01:00:30.955Z,3.10
2023-03-28T01:00:54.969Z,3.10
2023-03-28T01:01:18.476Z,3.20
2023-03-28T01:01:41.258Z,3.20
2023-03-28T01:02:04.124Z,3.20
2023-03-28T01:02:27.223Z,3.20
2023-03-28T01:02:52.451Z,3.20
2023-03-28T01:03:16.213Z,3.20
2023-03-28T01:03:41.602Z,3.20
2023-03-28T01:04:05.689Z,3.20
2023-03-28T01:04:33.486Z,3.20
2023-03-28T01:04:59.451Z,3.20
2023-03-28T01:05:24.895Z,3.20
2023-03-28T01:05:51.328Z,3.30
2023-03-28T01:06:14.907Z,3.20
2023-03-28T01:06:40.538Z,3.20
2023-03-28T01:07:03.513Z,3.20
2023-03-28T01:07:29.152Z,3.20
2023-03-28T01:07:54.004Z,3.20
2023-03-28T01:08:19.284Z,3.20
2023-03-28T01:08:44.231Z,3.20
2023-03-28T01:09:08.087Z,3.20
2023-03-28T01:09:30.802Z,3.20
2023-03-28T01:09:53.548Z,3.20
2023-03-28T01:10:16.277Z,3.20
2023-03-28T01:10:38.902Z,3.20
2023-03-28T01:11:01.640Z,3.20
2023-03-28T01:11:24.547Z,3.10
2023-03-28T01:11:47.352Z,3.10
2023-03-28T01:12:10.741Z,3.10
2023-03-28T01:12:33.528Z,3.10
2023-03-28T01:12:56.397Z,3.00
2023-03-28T01:13:21.466Z,3.00
2023-03-28T01:13:46.100Z,3.00
2023-03-28T01:14:08.861Z,3.00
2023-03-28T01:14:31.867Z,3.00
2023-03-28T01:14:55.232Z,3.00
2023-03-28T01:15:18.148Z,2.90
2023-03-28T01:15:43.356Z,2.90
2023-03-28T01:16:07.286Z,2.90
2023-03-28T01:16:33.175Z,2.90
2023-03-28T01:16:57.785Z,2.90
2023-03-28T01:17:21.308Z,2.90
2023-03-28T01:17:46.590Z,2.90
2023-03-28T01:18:11.731Z,2.90
2023-03-28T01:18:37.636Z,2.90
2023-03-28T01:19:03.362Z,2.90
2023-03-28T01:19:36.490Z,3.00
2023-03-28T01:20:03.663Z,3.00
2023-03-28T01:20:41.945Z,3.00
2023-03-28T01:21:34.801Z,3.00
2023-03-28T01:22:21.494Z,3.00
2023-03-28T01:23:23.365Z,2.90
2023-03-28T01:24:25.149Z,2.90
2023-03-28T01:25:23.803Z,2.80
2023-03-28T01:26:02.536Z,2.80
2023-03-28T01:26:48.181Z,2.80
2023-03-28T01:27:11.440Z,2.80
2023-03-28T01:27:35.030Z,2.70
2023-03-28T01:28:02.284Z,2.70
2023-03-28T01:28:35.833Z,2.70
2023-03-28T01:29:22.459Z,2.70
2023-03-28T01:30:18.103Z,2.60
2023-03-28T01:31:04.194Z,2.50
2023-03-28T01:31:49.555Z,2.40
2023-03-28T01:32:38.845Z,2.30
2023-03-28T01:33:28.330Z,2.30
2023-03-28T01:34:17.654Z,2.20
2023-03-28T01:34:49.359Z,2.10
2023-03-28T01:35:41.780Z,2.00
2023-03-28T01:36:49.416Z,1.90
2023-03-28T01:37:36.228Z,1.90
2023-03-28T01:38:00.646Z,1.80
2023-03-28T01:38:28.042Z,1.80
2023-03-28T01:38:52.558Z,1.80
2023-03-28T01:39:18.027Z,1.80
2023-03-28T01:39:50.493Z,1.80
2023-03-28T01:40:22.560Z,1.80
2023-03-28T01:40:47.479Z,1.80
2023-03-28T01:41:12.963Z,1.80
2023-03-28T01:41:39.347Z,1.80
2023-03-28T01:42:05.504Z,1.80
2023-03-28T01:42:30.925Z,1.80
2023-03-28T01:43:00.979Z,1.80
2023-03-28T01:43:30.323Z,1.80
2023-03-28T01:43:57.455Z,1.80
2023-03-28T01:44:24.340Z,1.80
2023-03-28T01:44:50.855Z,1.80
2023-03-28T01:45:15.625Z,1.80
2023-03-28T01:45:43.005Z,1.80
2023-03-28T01:46:08.312Z,1.80
2023-03-28T01:46:32.663Z,1.80
2023-03-28T01:46:59.211Z,1.80
2023-03-28T01:47:25.923Z,1.80
2023-03-28T01:47:51.822Z,1.80
2023-03-28T01:48:19.920Z,1.80
2023-03-28T01:48:50.319Z,1.80
2023-03-28T01:49:16.043Z,1.80
2023-03-28T01:49:42.100Z,1.90
2023-03-28T01:50:09.136Z,1.90
2023-03-28T01:50:35.881Z,1.90
2023-03-28T01:51:04.732Z,1.90
2023-03-28T01:51:35.037Z,1.90
2023-03-28T01:51:59.053Z,1.90
2023-03-28T01:52:23.514Z,1.90
2023-03-28T01:52:51.406Z,1.90
2023-03-28T01:53:19.138Z,1.90
2023-03-28T01:53:44.408Z,1.90
2023-03-28T01:54:12.692Z,1.90
2023-03-28T01:54:39.632Z,1.90
2023-03-28T01:55:05.707Z,1.90
2023-03-28T01:55:30.415Z,1.80
2023-03-28T01:55:54.627Z,1.80
2023-03-28T01:56:22.406Z,1.80
2023-03-28T01:56:49.259Z,1.80
2023-03-28T01:57:14.181Z,1.90
2023-03-28T01:57:42.926Z,1.80
2023-03-28T01:58:07.523Z,1.80
2023-03-28T01:58:35.434Z,1.80
2023-03-28T01:59:00.270Z,1.80
2023-03-28T01:59:24.789Z,1.80
2023-03-28T01:59:49.222Z,1.90
2023-03-28T02:00:15.815Z,1.90
2023-03-28T02:00:43.446Z,1.80
2023-03-28T02:01:09.084Z,1.80
2023-03-28T02:01:36.944Z,1.80
2023-03-28T02:02:04.112Z,1.80
2023-03-28T02:02:30.363Z,1.80
2023-03-28T02:02:54.667Z,1.80
2023-03-28T02:03:23.059Z,1.80
2023-03-28T02:03:48.010Z,1.70
2023-03-28T02:04:20.711Z,1.70
2023-03-28T02:04:45.324Z,1.70
2023-03-28T02:05:09.824Z,1.70
2023-03-28T02:05:33.405Z,1.60
2023-03-28T02:05:57.026Z,1.60
2023-03-28T02:06:22.243Z,1.60
2023-03-28T02:06:47.244Z,1.60
2023-03-28T02:07:11.226Z,1.50
2023-03-28T02:07:34.626Z,1.50
2023-03-28T02:07:58.688Z,1.50
2023-03-28T02:08:21.957Z,1.50
2023-03-28T02:08:44.688Z,1.50
2023-03-28T02:09:10.261Z,1.50
2023-03-28T02:09:36.005Z,1.40
2023-03-28T02:09:58.801Z,1.50
2023-03-28T02:10:25.505Z,1.50
2023-03-28T02:10:48.488Z,1.50
2023-03-28T02:11:11.312Z,1.50
2023-03-28T02:11:33.978Z,1.40
2023-03-28T02:11:58.399Z,1.40
2023-03-28T02:12:25.154Z,1.40
2023-03-28T02:12:48.971Z,1.50
2023-03-28T02:13:16.291Z,1.40
2023-03-28T02:13:42.157Z,1.50
2023-03-28T02:14:07.050Z,1.50
2023-03-28T02:14:33.299Z,1.40
2023-03-28T02:14:56.575Z,1.40
2023-03-28T02:15:19.959Z,1.40
2023-03-28T02:15:42.841Z,1.50
2023-03-28T02:16:06.211Z,1.40
2023-03-28T02:16:29.062Z,1.40
2023-03-28T02:16:54.356Z,1.40
2023-03-28T02:17:17.357Z,1.50
2023-03-28T02:17:42.689Z,1.40
2023-03-28T02:18:09.458Z,1.50
2023-03-28T02:18:34.453Z,1.50
2023-03-28T02:18:57.957Z,1.40
2023-03-28T02:19:22.468Z,1.50
2023-03-28T02:19:48.343Z,1.40
2023-03-28T02:20:12.817Z,1.50
2023-03-28T02:20:35.606Z,1.50
2023-03-28T02:21:03.052Z,1.50
2023-03-28T02:21:28.083Z,1.50
2023-03-28T02:21:54.259Z,1.50
2023-03-28T02:22:21.009Z,1.50
2023-03-28T02:22:47.061Z,1.50
2023-03-28T02:23:13.342Z,1.50
2023-03-28T02:23:38.749Z,1.50
2023-03-28T02:24:01.543Z,1.50
2023-03-28T02:24:24.253Z,1.50
2023-03-28T02:24:52.096Z,1.50
2023-03-28T02:25:15.063Z,1.50
2023-03-28T02:25:40.065Z,1.50
2023-03-28T02:26:02.704Z,1.50
2023-03-28T02:26:28.010Z,1.50
2023-03-28T02:26:50.767Z,1.50
2023-03-28T02:27:16.496Z,1.50
2023-03-28T02:27:39.559Z,1.40
2023-03-28T02:28:05.831Z,1.50
2023-03-28T02:28:28.652Z,1.50
2023-03-28T02:28:53.855Z,1.50
2023-03-28T02:29:16.979Z,1.50
2023-03-28T02:29:39.686Z,1.40
2023-03-28T02:30:02.381Z,1.40
2023-03-28T02:30:25.128Z,1.50
2023-03-28T02:30:48.001Z,1.50
2023-03-28T02:31:11.333Z,1.50
2023-03-28T02:31:35.273Z,1.50
2023-03-28T02:31:58.120Z,1.50
2023-03-28T02:32:22.270Z,1.50
2023-03-28T02:32:50.659Z,1.50
2023-03-28T02:33:33.555Z,1.50
2023-03-28T02:33:57.014Z,1.50
2023-03-28T02:34:19.741Z,1.50
2023-03-28T02:34:43.047Z,1.50
2023-03-28T02:35:07.398Z,1.50
2023-03-28T02:35:36.199Z,1.50
2023-03-28T02:36:02.848Z,1.50
2023-03-28T02:36:34.770Z,1.50
2023-03-28T02:37:00.781Z,1.50
2023-03-28T02:37:31.453Z,1.50
2023-03-28T02:37:57.121Z,1.50
2023-03-28T02:38:24.067Z,1.50
2023-03-28T02:38:50.912Z,1.50
2023-03-28T02:39:47.060Z,1.40
2023-03-28T02:40:25.450Z,1.50
2023-03-28T02:40:52.866Z,1.40
2023-03-28T02:41:20.116Z,1.40
2023-03-28T02:41:48.227Z,1.40
2023-03-28T02:42:24.077Z,1.40
2023-03-28T02:43:01.314Z,1.40
2023-03-28T02:43:45.100Z,1.30
2023-03-28T02:44:20.907Z,1.30
2023-03-28T02:44:54.858Z,1.40
2023-03-28T02:45:36.825Z,1.40
2023-03-28T02:46:22.964Z,1.40
2023-03-28T02:46:49.293Z,1.40
2023-03-28T02:47:16.362Z,1.50
2023-03-28T02:47:41.557Z,1.40
2023-03-28T02:48:12.313Z,1.40
2023-03-28T02:48:42.677Z,1.50
2023-03-28T02:49:16.585Z,1.50
2023-03-28T02:49:50.512Z,1.40
2023-03-28T02:50:19.979Z,1.50
2023-03-28T02:50:44.930Z,1.50
2023-03-28T02:51:12.747Z,1.50
2023-03-28T02:51:40.713Z,1.60
2023-03-28T02:52:11.079Z,1.50
2023-03-28T02:52:40.314Z,1.50
2023-03-28T02:53:04.481Z,1.50
2023-03-28T02:53:33.075Z,1.50
2023-03-28T02:53:59.385Z,1.50
2023-03-28T02:54:29.692Z,1.40
2023-03-28T02:54:53.321Z,1.40
2023-03-28T02:55:17.816Z,1.40
2023-03-28T02:55:42.183Z,1.40
2023-03-28T02:56:06.098Z,1.40
2023-03-28T02:56:32.234Z,1.40
2023-03-28T02:57:02.061Z,1.40
2023-03-28T02:57:28.328Z,1.40
2023-03-28T02:57:52.311Z,1.40
2023-03-28T02:58:18.347Z,1.40
2023-03-28T02:58:43.054Z,1.40
2023-03-28T02:59:11.879Z,1.40
2023-03-28T02:59:39.854Z,1.40
2023-03-28T03:00:12.747Z,1.40
2023-03-28T03:00:36.783Z,1.40
2023-03-28T03:00:59.732Z,1.50
2023-03-28T03:01:25.679Z,1.50
2023-03-28T03:01:48.516Z,1.50
2023-03-28T03:02:11.754Z,1.50
2023-03-28T03:02:34.533Z,1.50
2023-03-28T03:02:57.501Z,1.50
2023-03-28T03:03:20.371Z,1.50
2023-03-28T03:03:43.954Z,1.50
2023-03-28T03:04:08.203Z,1.50
2023-03-28T03:04:31.268Z,1.50
2023-03-28T03:04:57.892Z,1.50
2023-03-28T03:05:21.477Z,1.50
2023-03-28T03:05:46.467Z,1.50
2023-03-28T03:06:09.732Z,1.50
2023-03-28T03:06:35.384Z,1.50
2023-03-28T03:07:02.261Z,1.50
2023-03-28T03:07:25.148Z,1.50
2023-03-28T03:07:48.039Z,1.50
2023-03-28T03:08:11.886Z,1.50
2023-03-28T03:08:36.324Z,1.50
2023-03-28T03:08:59.700Z,1.50
2023-03-28T03:09:23.148Z,1.50
2023-03-28T03:09:45.971Z,1.50
2023-03-28T03:10:12.377Z,1.60
2023-03-28T03:10:35.159Z,1.60
2023-03-28T03:10:59.983Z,1.60
2023-03-28T03:11:23.080Z,1.60
2023-03-28T03:11:46.117Z,1.60
2023-03-28T03:12:08.909Z,1.60
2023-03-28T03:12:31.633Z,1.60
2023-03-28T03:12:56.810Z,1.60
2023-03-28T03:13:22.121Z,1.60
2023-03-28T03:13:44.928Z,1.60
2023-03-28T03:14:07.630Z,1.60
2023-03-28T03:14:30.365Z,1.60
2023-03-28T03:14:53.206Z,1.60
2023-03-28T03:15:18.605Z,1.60
2023-03-28T03:15:41.562Z,1.60
2023-03-28T03:16:05.445Z,1.60
2023-03-28T03:16:29.401Z,1.60
2023-03-28T03:16:52.651Z,1.60
2023-03-28T03:17:17.823Z,1.60
2023-03-28T03:17:40.997Z,1.60
2023-03-28T03:18:06.301Z,1.60
2023-03-28T03:18:29.073Z,1.60
2023-03-28T03:18:53.945Z,1.60
2023-03-28T03:19:16.816Z,1.60
2023-03-28T03:19:40.858Z,1.60
2023-03-28T03:20:07.635Z,1.60
2023-03-28T03:20:33.731Z,1.60
2023-03-28T03:20:56.927Z,1.50
2023-03-28T03:21:22.133Z,1.60
2023-03-28T03:21:45.018Z,1.50
2023-03-28T03:22:10.093Z,1.50
2023-03-28T03:22:43.811Z,1.50
2023-03-28T03:23:08.994Z,1.50
2023-03-28T03:23:31.719Z,1.50
2023-03-28T03:23:58.718Z,1.50
2023-03-28T03:24:21.581Z,1.60
2023-03-28T03:24:46.688Z,1.60
2023-03-28T03:25:14.728Z,1.60
2023-03-28T03:25:37.608Z,1.60
2023-03-28T03:26:02.933Z,1.60
2023-03-28T03:26:26.111Z,1.50
2023-03-28T03:26:51.182Z,1.50
2023-03-28T03:27:14.426Z,1.40
2023-03-28T03:27:39.436Z,1.50
2023-03-28T03:28:02.217Z,1.50
2023-03-28T03:28:25.148Z,1.40
2023-03-28T03:28:49.664Z,1.40
2023-03-28T03:29:12.651Z,1.50
2023-03-28T03:29:38.736Z,1.50
2023-03-28T03:30:02.509Z,1.50
2023-03-28T03:30:27.770Z,1.50
2023-03-28T03:30:51.411Z,1.40
2023-03-28T03:31:16.401Z,1.40
2023-03-28T03:31:39.233Z,1.50
2023-03-28T03:32:04.261Z,1.50
2023-03-28T03:32:27.141Z,1.40
2023-03-28T03:32:54.752Z,1.50
2023-03-28T03:33:17.603Z,1.40
2023-03-28T03:33:41.720Z,1.40
2023-03-28T03:34:06.807Z,1.40
2023-03-28T03:34:29.643Z,1.40
2023-03-28T03:34:54.721Z,1.40
2023-03-28T03:35:17.692Z,1.40
2023-03-28T03:35:42.411Z,1.40
2023-03-28T03:36:06.498Z,1.40
2023-03-28T03:36:30.925Z,1.50
2023-03-28T03:36:54.944Z,1.40
2023-03-28T03:37:18.300Z,1.50
2023-03-28T03:37:41.624Z,1.50
2023-03-28T03:38:07.322Z,1.50
2023-03-28T03:38:30.227Z,1.50
2023-03-28T03:38:53.308Z,1.50
2023-03-28T03:39:20.589Z,1.40
2023-03-28T03:39:46.926Z,1.50
2023-03-28T03:40:11.112Z,1.50
2023-03-28T03:40:33.821Z,1.50
2023-03-28T03:40:56.616Z,1.50
2023-03-28T03:41:19.469Z,1.50
2023-03-28T03:41:42.231Z,1.50
2023-03-28T03:42:05.082Z,1.50
2023-03-28T03:42:27.855Z,1.60
2023-03-28T03:42:50.782Z,1.60
2023-03-28T03:43:15.953Z,1.50
2023-03-28T03:43:38.726Z,1.50
2023-03-28T03:44:04.014Z,1.60
2023-03-28T03:44:26.728Z,1.60
2023-03-28T03:44:49.455Z,1.60
2023-03-28T03:45:12.499Z,1.60
2023-03-28T03:45:35.881Z,1.60
2023-03-28T03:46:00.589Z,1.60
2023-03-28T03:46:23.708Z,1.60
2023-03-28T03:46:48.723Z,1.60
2023-03-28T03:47:11.873Z,1.60
2023-03-28T03:47:34.648Z,1.70
2023-03-28T03:47:57.401Z,1.70
2023-03-28T03:48:20.726Z,1.60
2023-03-28T03:48:49.643Z,1.70
2023-03-28T03:49:13.152Z,1.70
2023-03-28T03:49:35.842Z,1.70
2023-03-28T03:49:58.585Z,1.70
2023-03-28T03:50:21.332Z,1.70
2023-03-28T03:50:44.158Z,1.80
2023-03-28T03:51:08.064Z,1.80
2023-03-28T03:51:30.771Z,1.80
2023-03-28T03:51:54.501Z,1.90
2023-03-28T03:52:17.234Z,1.80
2023-03-28T03:52:39.892Z,1.80
2023-03-28T03:53:02.642Z,1.90
2023-03-28T03:53:25.398Z,1.90
2023-03-28T03:53:50.706Z,1.90
2023-03-28T03:54:13.446Z,1.90
2023-03-28T03:54:38.323Z,1.90
2023-03-28T03:55:01.666Z,1.90
2023-03-28T03:55:26.796Z,1.90
2023-03-28T03:55:49.610Z,1.90
2023-03-28T03:56:12.320Z,1.90
2023-03-28T03:56:35.101Z,1.90
2023-03-28T03:56:57.926Z,1.90
2023-03-28T03:57:23.344Z,1.90
2023-03-28T03:57:46.104Z,1.90
2023-03-28T03:58:08.896Z,2.00
2023-03-28T03:58:34.634Z,1.90
2023-03-28T03:58:57.351Z,2.00
2023-03-28T03:59:20.114Z,2.00
2023-03-28T03:59:43.095Z,2.00
2023-03-28T04:00:12.112Z,2.00
2023-03-28T04:00:37.746Z,2.00
2023-03-28T04:01:00.494Z,2.00
2023-03-28T04:01:26.024Z,2.00
2023-03-28T04:01:49.067Z,2.00
2023-03-28T04:02:15.422Z,2.00
2023-03-28T04:02:38.570Z,2.00
2023-03-28T04:03:01.672Z,2.00
2023-03-28T04:03:25.254Z,2.00
2023-03-28T04:03:49.330Z,2.00
2023-03-28T04:04:14.378Z,2.00
2023-03-28T04:04:37.136Z,2.00
2023-03-28T04:05:02.053Z,2.00
2023-03-28T04:05:24.836Z,2.00
2023-03-28T04:05:47.588Z,2.00
2023-03-28T04:06:13.368Z,2.00
2023-03-28T04:06:36.391Z,2.00
2023-03-28T04:06:59.398Z,2.00
2023-03-28T04:07:22.102Z,2.00
2023-03-28T04:07:44.874Z,2.00
2023-03-28T04:08:07.632Z,2.00
2023-03-28T04:08:30.935Z,2.00
2023-03-28T04:08:53.634Z,2.00
2023-03-28T04:09:16.552Z,2.00
2023-03-28T04:09:40.881Z,2.00
2023-03-28T04:10:03.636Z,2.00
2023-03-28T04:10:28.649Z,2.00
2023-03-28T04:10:51.443Z,2.00
2023-03-28T04:11:14.123Z,2.00
2023-03-28T04:11:36.790Z,2.00
2023-03-28T04:11:59.616Z,2.00
2023-03-28T04:12:22.576Z,2.00
2023-03-28T04:12:45.324Z,2.00
2023-03-28T04:13:08.006Z,1.90
2023-03-28T04:13:30.723Z,1.90
2023-03-28T04:13:53.445Z,1.90
2023-03-28T04:14:16.258Z,2.00
2023-03-28T04:14:38.962Z,1.90
2023-03-28T04:15:01.727Z,2.00
2023-03-28T04:15:24.652Z,2.00
2023-03-28T04:15:48.031Z,1.90
2023-03-28T04:16:12.073Z,1.90
2023-03-28T04:16:40.952Z,1.90
2023-03-28T04:17:05.121Z,2.00
2023-03-28T04:17:35.018Z,1.90
2023-03-28T04:18:03.805Z,1.90
2023-03-28T04:18:29.944Z,1.90
2023-03-28T04:18:55.838Z,1.90
2023-03-28T04:19:19.213Z,1.90
2023-03-28T04:19:42.263Z,1.80
2023-03-28T04:20:13.834Z,1.80
2023-03-28T04:20:37.028Z,1.80
2023-03-28T04:20:59.925Z,1.80
2023-03-28T04:21:27.597Z,1.80
2023-03-28T04:21:52.574Z,1.80
2023-03-28T04:22:18.232Z,1.80
2023-03-28T04:22:46.199Z,1.80
2023-03-28T04:23:09.947Z,1.80
2023-03-28T04:23:33.948Z,1.80
2023-03-28T04:24:01.862Z,1.80
2023-03-28T04:24:24.879Z,1.80
2023-03-28T04:24:50.126Z,1.80
2023-03-28T04:25:14.160Z,1.70
2023-03-28T04:25:37.723Z,1.70
2023-03-28T04:26:02.671Z,1.70
2023-03-28T04:26:28.354Z,1.70
2023-03-28T04:26:55.553Z,1.60
2023-03-28T04:27:18.316Z,1.70
2023-03-28T04:27:47.177Z,1.70
2023-03-28T04:28:10.449Z,1.70
2023-03-28T04:28:33.191Z,1.70
2023-03-28T04:28:56.169Z,1.80
2023-03-28T04:29:18.902Z,1.70
2023-03-28T04:29:41.828Z,1.70
2023-03-28T04:30:05.899Z,1.70
2023-03-28T04:30:29.614Z,1.70
2023-03-28T04:30:54.714Z,1.70
2023-03-28T04:31:17.528Z,1.70
2023-03-28T04:31:40.398Z,1.70
2023-03-28T04:32:05.664Z,1.70
2023-03-28T04:32:28.368Z,1.70
2023-03-28T04:32:54.417Z,1.70
2023-03-28T04:33:17.328Z,1.70
2023-03-28T04:33:42.251Z,1.60
2023-03-28T04:34:05.626Z,1.60
2023-03-28T04:34:33.734Z,1.60
2023-03-28T04:34:56.498Z,1.60
2023-03-28T04:35:19.522Z,1.60
2023-03-28T04:35:45.216Z,1.60
2023-03-28T04:36:10.379Z,1.60
2023-03-28T04:36:33.440Z,1.60
2023-03-28T04:37:02.501Z,1.60
2023-03-28T04:37:25.288Z,1.60
2023-03-28T04:37:49.346Z,1.60
2023-03-28T04:38:20.944Z,1.60
2023-03-28T04:38:47.259Z,1.60
2023-03-28T04:39:09.922Z,1.60
2023-03-28T04:39:35.882Z,1.70
2023-03-28T04:40:01.809Z,1.70
2023-03-28T04:40:28.368Z,1.80
2023-03-28T04:40:53.794Z,1.70
2023-03-28T04:41:17.897Z,1.70
2023-03-28T04:41:42.022Z,1.70
2023-03-28T04:42:08.543Z,1.70
2023-03-28T04:42:31.877Z,1.70
2023-03-28T04:42:57.546Z,1.70
2023-03-28T04:43:23.558Z,1.70
2023-03-28T04:43:46.267Z,1.70
2023-03-28T04:44:11.338Z,1.70
2023-03-28T04:44:34.092Z,1.60
2023-03-28T04:44:56.806Z,1.60
2023-03-28T04:45:21.721Z,1.70
2023-03-28T04:45:45.010Z,1.60
2023-03-28T04:46:10.763Z,1.60
2023-03-28T04:46:33.649Z,1.60
2023-03-28T04:46:58.819Z,1.60
2023-03-28T04:47:24.298Z,1.60
2023-03-28T04:47:48.433Z,1.60
2023-03-28T04:48:11.165Z,1.50
2023-03-28T04:48:33.916Z,1.60
2023-03-28T04:48:57.135Z,1.60
2023-03-28T04:49:22.756Z,1.60
2023-03-28T04:49:45.468Z,1.50
2023-03-28T04:50:10.286Z,1.60
2023-03-28T04:50:35.648Z,1.60
2023-03-28T04:50:58.629Z,1.60
2023-03-28T04:51:24.581Z,1.60
2023-03-28T04:51:47.373Z,1.60
2023-03-28T04:52:10.373Z,1.60
2023-03-28T04:52:34.734Z,1.60
2023-03-28T04:52:57.502Z,1.60
2023-03-28T04:53:23.094Z,1.50
2023-03-28T04:53:45.883Z,1.50
2023-03-28T04:54:08.595Z,1.50
2023-03-28T04:54:31.279Z,1.50
2023-03-28T04:54:53.973Z,1.50
2023-03-28T04:55:18.244Z,1.50
2023-03-28T04:55:41.244Z,1.50
2023-03-28T04:56:04.034Z,1.50
2023-03-28T04:56:27.459Z,1.50
2023-03-28T04:56:50.384Z,1.50
2023-03-28T04:57:13.168Z,1.40
2023-03-28T04:57:38.456Z,1.40
2023-03-28T04:58:01.129Z,1.50
2023-03-28T04:58:24.129Z,1.50
2023-03-28T04:58:46.882Z,1.50
2023-03-28T04:59:11.258Z,1.50
2023-03-28T04:59:33.933Z,1.50
2023-03-28T04:59:56.751Z,1.50
2023-03-28T05:00:19.617Z,1.50
2023-03-28T05:00:43.061Z,1.50
2023-03-28T05:01:06.135Z,1.50
2023-03-28T05:01:28.936Z,1.50
2023-03-28T05:01:51.756Z,1.50
2023-03-28T05:02:14.473Z,1.50
2023-03-28T05:02:37.353Z,1.60
2023-03-28T05:03:00.525Z,1.60
2023-03-28T05:03:24.758Z,1.60
2023-03-28T05:03:47.570Z,1.60
2023-03-28T05:04:10.361Z,1.60
2023-03-28T05:04:33.059Z,1.60
2023-03-28T05:04:55.746Z,1.70
2023-03-28T05:05:18.629Z,1.70
2023-03-28T05:05:41.590Z,1.70
2023-03-28T05:06:05.015Z,1.80
2023-03-28T05:06:27.635Z,1.80
2023-03-28T05:06:50.340Z,1.80
2023-03-28T05:07:13.055Z,1.90
2023-03-28T05:07:36.990Z,1.90
2023-03-28T05:07:59.800Z,2.00
2023-03-28T05:08:24.059Z,2.00
2023-03-28T05:08:46.868Z,2.10
2023-03-28T05:09:14.732Z,2.10
2023-03-28T05:09:38.156Z,2.30
2023-03-28T05:10:03.140Z,2.40
2023-03-28T05:10:27.409Z,2.40
2023-03-28T05:10:50.739Z,2.60
2023-03-28T05:11:13.538Z,2.70
2023-03-28T05:11:36.268Z,2.80
2023-03-28T05:11:59.065Z,2.90
2023-03-28T05:12:24.265Z,3.00
2023-03-28T05:12:47.026Z,3.10
2023-03-28T05:13:10.306Z,3.30
2023-03-28T05:13:35.268Z,3.40
2023-03-28T05:13:58.080Z,3.50
2023-03-28T05:14:20.966Z,3.60
2023-03-28T05:14:43.837Z,3.60
2023-03-28T05:15:07.723Z,3.70
2023-03-28T05:15:30.746Z,3.80
2023-03-28T05:15:53.597Z,3.80
2023-03-28T05:16:16.480Z,3.90
2023-03-28T05:16:39.285Z,4.00
2023-03-28T05:17:02.070Z,4.20
2023-03-28T05:17:25.061Z,4.30
2023-03-28T05:17:47.946Z,4.40
2023-03-28T05:18:11.667Z,4.60
2023-03-28T05:18:34.405Z,4.70
2023-03-28T05:18:57.239Z,4.80
2023-03-28T05:19:23.065Z,4.80
2023-03-28T05:19:47.444Z,4.90
2023-03-28T05:20:11.233Z,4.90
2023-03-28T05:20:34.013Z,4.90
2023-03-28T05:20:56.765Z,4.90
2023-03-28T05:21:19.588Z,5.00
2023-03-28T05:21:42.345Z,5.10
2023-03-28T05:22:05.089Z,5.30
2023-03-28T05:22:28.326Z,5.40
2023-03-28T05:22:52.115Z,5.60
2023-03-28T05:23:14.815Z,5.70
2023-03-28T05:23:37.480Z,5.90
2023-03-28T05:24:00.304Z,6.00
2023-03-28T05:24:23.039Z,6.10
2023-03-28T05:24:48.059Z,6.20
2023-03-28T05:25:11.536Z,6.30
2023-03-28T05:25:36.642Z,6.40
2023-03-28T05:25:59.319Z,6.50
2023-03-28T05:26:24.464Z,6.50
2023-03-28T05:26:47.384Z,6.50
2023-03-28T05:27:12.292Z,6.60
2023-03-28T05:27:38.333Z,6.60
2023-03-28T05:28:05.069Z,6.50
2023-03-28T05:28:29.273Z,6.60
2023-03-28T05:28:52.020Z,6.80
2023-03-28T05:29:17.055Z,6.90
2023-03-28T05:29:39.967Z,7.00
2023-03-28T05:30:02.650Z,7.10
2023-03-28T05:30:27.744Z,7.20
2023-03-28T05:30:50.393Z,7.30
2023-03-28T05:31:14.157Z,7.40
2023-03-28T05:31:39.062Z,7.50
2023-03-28T05:32:02.141Z,7.50
2023-03-28T05:32:28.306Z,7.50
2023-03-28T05:32:51.303Z,7.50
2023-03-28T05:33:14.157Z,7.60
2023-03-28T05:33:39.268Z,7.60
2023-03-28T05:34:01.945Z,7.60
2023-03-28T05:34:24.794Z,7.70
2023-03-28T05:34:49.748Z,7.70
2023-03-28T05:35:13.274Z,7.60
2023-03-28T05:35:40.776Z,7.70
2023-03-28T05:36:04.690Z,7.80
2023-03-28T05:36:30.260Z,7.80
2023-03-28T05:36:52.965Z,7.80
2023-03-28T05:37:15.734Z,7.80